createdAt,value
2023-01-17T00:01:34.531Z,13.80
2023-01-17T00:04:20.331Z,13.50
2023-01-17T00:07:06.206Z,16.60
2023-01-17T00:09:52.001Z,15.70
2023-01-17T00:12:22.324Z,14.40
2023-01-17T00:17:16.520Z,14.30
2023-01-17T00:20:02.513Z,15.40
2023-01-17T00:22:49.321Z,16.40
2023-01-17T00:25:39.714Z,16.30
2023-01-17T00:28:06.962Z,18.60
2023-01-17T00:30:37.005Z,15.00
2023-01-17T00:33:04.125Z,12.80
2023-01-17T00:35:33.949Z,13.70
2023-01-17T00:38:07.547Z,17.90
2023-01-17T00:40:35.405Z,13.30
2023-01-17T00:43:21.212Z,16.20
2023-01-17T00:46:07.181Z,14.20
2023-01-17T00:48:52.986Z,15.30
2023-01-17T00:51:38.882Z,16.10
2023-01-17T00:54:24.761Z,16.40
2023-01-17T00:57:11.046Z,15.90
2023-01-17T00:59:56.933Z,15.30
2023-01-17T01:02:42.886Z,14.70
2023-01-17T01:05:28.817Z,16.10
2023-01-17T01:08:15.043Z,15.50
2023-01-17T01:11:01.826Z,16.80
2023-01-17T01:13:48.175Z,14.00
2023-01-17T01:16:34.570Z,14.10
2023-01-17T01:19:20.511Z,13.40
2023-01-17T01:22:06.506Z,16.10
2023-01-17T01:24:52.595Z,16.70
2023-01-17T01:27:38.381Z,16.70
2023-01-17T01:30:25.195Z,13.00
2023-01-17T01:33:10.996Z,14.00
2023-01-17T01:35:38.025Z,14.40
2023-01-17T01:38:05.071Z,14.80
2023-01-17T01:40:32.223Z,13.00
2023-01-17T01:43:00.111Z,14.40
2023-01-17T01:45:29.135Z,14.90
2023-01-17T01:48:05.795Z,12.30
2023-01-17T01:50:34.243Z,15.00
2023-01-17T01:53:02.298Z,13.20
2023-01-17T01:55:36.461Z,13.10
2023-01-17T01:58:09.208Z,14.00
2023-01-17T02:00:36.803Z,10.70
2023-01-17T02:03:12.325Z,12.30
2023-01-17T02:05:40.073Z,12.00
2023-01-17T02:08:41.592Z,11.20
2023-01-17T02:11:11.030Z,13.00
2023-01-17T02:13:38.080Z,8.30
2023-01-17T02:16:16.413Z,8.70
2023-01-17T02:18:51.338Z,10.20
2023-01-17T02:21:28.503Z,12.80
2023-01-17T02:24:27.304Z,9.50
2023-01-17T02:27:11.853Z,9.90
2023-01-17T02:29:57.757Z,10.50
2023-01-17T02:32:51.627Z,11.10
2023-01-17T02:35:22.641Z,12.60
2023-01-17T02:38:01.543Z,13.10
2023-01-17T02:40:36.242Z,9.80
2023-01-17T02:43:06.961Z,10.60
2023-01-17T02:45:34.110Z,9.90
2023-01-17T02:48:01.244Z,10.50
2023-01-17T02:50:35.061Z,8.10
2023-01-17T02:53:05.169Z,10.70
2023-01-17T02:56:06.105Z,11.20
2023-01-17T02:59:01.827Z,9.80
2023-01-17T03:01:53.842Z,10.70
2023-01-17T03:04:44.879Z,12.10
2023-01-17T03:07:16.535Z,10.20
2023-01-17T03:09:47.570Z,9.40
2023-01-17T03:12:14.920Z,10.60
2023-01-17T03:14:42.081Z,12.40
2023-01-17T03:17:09.321Z,10.00
2023-01-17T03:19:36.470Z,12.40
2023-01-17T03:22:03.625Z,10.20
2023-01-17T03:24:30.772Z,10.50
2023-01-17T03:26:57.925Z,11.20
2023-01-17T03:29:25.066Z,12.30
2023-01-17T03:31:52.224Z,11.90
2023-01-17T03:34:19.286Z,13.60
2023-01-17T03:36:46.423Z,11.20
2023-01-17T03:39:13.565Z,10.60
2023-01-17T03:41:40.628Z,10.10
2023-01-17T03:44:07.760Z,12.00
2023-01-17T03:46:34.908Z,9.80
2023-01-17T03:49:01.974Z,13.50
2023-01-17T03:51:29.106Z,16.40
2023-01-17T03:53:56.210Z,12.80
2023-01-17T03:56:23.507Z,12.70
2023-01-17T03:58:51.805Z,10.50
2023-01-17T04:01:19.465Z,22.10
2023-01-17T04:03:46.716Z,14.90
2023-01-17T04:06:13.953Z,17.80
2023-01-17T04:08:41.920Z,17.90
2023-01-17T04:11:08.976Z,14.80
2023-01-17T04:13:36.114Z,18.00
2023-01-17T04:16:04.337Z,15.50
2023-01-17T04:18:31.546Z,19.30
2023-01-17T04:20:58.588Z,22.30
2023-01-17T04:23:25.736Z,19.70
2023-01-17T04:25:52.818Z,19.90
2023-01-17T04:28:19.933Z,21.60
2023-01-17T04:30:47.137Z,28.10
2023-01-17T04:33:14.537Z,23.60
2023-01-17T04:35:41.765Z,20.10
2023-01-17T04:38:08.877Z,22.40
2023-01-17T04:40:36.196Z,23.10
2023-01-17T04:43:03.249Z,19.50
2023-01-17T04:45:30.493Z,14.50
2023-01-17T04:48:03.169Z,20.60
2023-01-17T04:50:30.324Z,17.70
2023-01-17T04:52:57.471Z,22.40
2023-01-17T04:55:24.533Z,17.20
2023-01-17T04:57:51.571Z,20.70
2023-01-17T05:00:19.332Z,19.40
2023-01-17T05:02:46.514Z,22.40
2023-01-17T05:05:13.832Z,21.50
2023-01-17T05:07:41.088Z,20.00
2023-01-17T05:10:08.980Z,22.70
2023-01-17T05:12:36.003Z,23.50
2023-01-17T05:15:03.555Z,22.80
2023-01-17T05:17:30.620Z,23.20
2023-01-17T05:19:57.757Z,26.40
2023-01-17T05:22:24.949Z,23.10
2023-01-17T05:24:52.068Z,20.30
2023-01-17T05:27:19.105Z,21.20
2023-01-17T05:29:46.191Z,20.20
2023-01-17T05:32:13.396Z,23.10
2023-01-17T05:34:40.647Z,21.50
2023-01-17T05:37:07.698Z,18.50
2023-01-17T05:39:34.933Z,19.70
2023-01-17T05:42:02.115Z,21.70
2023-01-17T05:44:29.245Z,20.80
2023-01-17T05:46:56.703Z,19.90
2023-01-17T05:49:23.961Z,26.90
2023-01-17T05:51:52.411Z,21.80
2023-01-17T05:54:21.326Z,26.60
2023-01-17T05:56:48.626Z,22.30
2023-01-17T05:59:17.317Z,22.30
2023-01-17T06:01:48.102Z,26.90
2023-01-17T06:04:15.297Z,26.50
2023-01-17T06:06:42.503Z,22.20
2023-01-17T06:09:10.679Z,32.80
2023-01-17T06:11:37.831Z,27.00
2023-01-17T06:14:04.975Z,23.00
2023-01-17T06:16:32.020Z,24.30
2023-01-17T06:18:59.076Z,28.90
2023-01-17T06:21:26.129Z,26.20
2023-01-17T06:23:55.621Z,31.10
2023-01-17T06:26:23.021Z,26.00
2023-01-17T06:28:50.123Z,23.80
2023-01-17T06:31:17.502Z,21.30
2023-01-17T06:33:45.266Z,25.80
2023-01-17T06:36:13.009Z,25.70
2023-01-17T06:38:40.290Z,29.30
2023-01-17T06:41:07.464Z,24.10
2023-01-17T06:43:35.303Z,25.90
2023-01-17T06:46:02.466Z,21.80
2023-01-17T06:48:29.720Z,23.70
2023-01-17T06:50:58.286Z,22.60
2023-01-17T06:53:25.509Z,27.90
2023-01-17T06:55:56.248Z,22.60
2023-01-17T06:58:24.130Z,24.30
2023-01-17T07:00:51.647Z,28.70
2023-01-17T07:03:24.106Z,27.60
2023-01-17T07:05:51.532Z,27.10
2023-01-17T07:08:19.726Z,22.50
2023-01-17T07:10:47.652Z,29.40
2023-01-17T07:13:14.894Z,22.90
2023-01-17T07:15:42.424Z,27.10
2023-01-17T07:18:09.703Z,28.40
2023-01-17T07:20:38.803Z,24.30
2023-01-17T07:23:07.103Z,22.70
2023-01-17T07:33:13.598Z,27.80
2023-01-17T07:35:40.848Z,28.30
2023-01-17T07:38:39.192Z,23.60
2023-01-17T07:41:06.888Z,28.90
2023-01-17T07:43:35.787Z,26.20
2023-01-17T07:46:02.827Z,25.80
2023-01-17T07:48:31.047Z,26.10
2023-01-17T07:50:58.867Z,35.70
2023-01-17T07:53:27.137Z,31.40
2023-01-17T07:55:55.502Z,24.00
2023-01-17T07:58:28.149Z,28.90
2023-01-17T08:00:55.564Z,28.20
2023-01-17T08:03:22.809Z,30.00
2023-01-17T08:05:54.361Z,26.40
2023-01-17T08:08:22.141Z,27.30
2023-01-17T08:10:49.889Z,32.20
2023-01-17T08:13:17.242Z,34.10
2023-01-17T14:07:04.657Z,41.50
2023-01-17T14:09:42.196Z,38.90
2023-01-17T14:12:09.404Z,38.90
2023-01-17T14:14:45.537Z,33.40
2023-01-17T14:17:28.562Z,30.20
2023-01-17T14:19:57.935Z,37.80
2023-01-17T14:22:25.137Z,33.40
2023-01-17T14:25:17.782Z,31.40
2023-01-17T14:27:52.247Z,31.10
2023-01-17T14:30:40.363Z,30.90
2023-01-17T14:33:14.957Z,29.30
2023-01-17T14:35:58.173Z,33.00
2023-01-17T14:38:30.023Z,30.30
2023-01-17T14:41:00.280Z,29.20
2023-01-17T14:46:01.182Z,31.80
2023-01-17T14:48:28.495Z,30.00
2023-01-17T14:50:58.987Z,26.90
2023-01-17T14:53:31.826Z,30.40
2023-01-17T14:56:13.639Z,33.00
2023-01-17T14:58:42.450Z,26.00
2023-01-17T15:01:18.039Z,30.60
2023-01-17T15:03:47.453Z,31.50
2023-01-17T15:06:26.048Z,30.50
2023-01-17T15:08:56.091Z,28.90
2023-01-17T15:11:30.023Z,34.40
2023-01-17T15:13:59.348Z,37.00
2023-01-17T15:16:33.847Z,31.40
2023-01-17T15:19:01.562Z,30.90
2023-01-17T15:21:32.917Z,33.90
2023-01-17T15:24:08.540Z,29.60
2023-01-17T15:26:41.020Z,31.60
2023-01-17T15:29:22.737Z,34.50
2023-01-17T15:31:58.820Z,30.40
2023-01-17T15:34:36.587Z,29.70
2023-01-17T15:37:09.034Z,32.10
2023-01-17T15:39:40.825Z,39.80
2023-01-17T15:42:20.484Z,32.30
2023-01-17T15:44:49.163Z,33.00
2023-01-17T15:47:31.584Z,31.10
2023-01-17T15:50:02.064Z,31.70
2023-01-17T15:52:29.333Z,28.30
2023-01-17T15:55:13.430Z,31.70
2023-01-17T15:57:40.828Z,32.40
2023-01-17T16:00:09.524Z,30.30
2023-01-17T16:02:42.905Z,27.50
2023-01-17T16:05:31.364Z,33.70
2023-01-17T16:08:04.522Z,31.10
2023-01-17T16:10:33.910Z,33.30
2023-01-17T16:13:01.971Z,30.20
2023-01-17T16:15:29.439Z,32.00
2023-01-17T16:18:15.885Z,29.30
2023-01-17T16:20:47.540Z,30.20
2023-01-17T16:23:14.791Z,32.40
2023-01-17T16:25:41.971Z,29.40
2023-01-17T16:28:09.502Z,29.70
2023-01-17T23:31:24.036Z,33.70
2023-01-17T23:33:51.440Z,31.50
2023-01-17T23:36:18.695Z,25.70
2023-01-17T23:38:45.740Z,27.50
2023-01-17T23:41:31.651Z,27.90
2023-01-17T23:43:58.899Z,24.50
2023-01-17T23:46:29.512Z,28.10
2023-01-17T23:48:56.578Z,27.10
2023-01-17T23:51:29.960Z,27.20
2023-01-17T23:54:04.785Z,24.20
2023-01-17T23:56:32.077Z,26.80
2023-01-17T23:59:00.728Z,30.00
